createdAt,value
2023-08-17T00:01:36.445Z,12.00
2023-08-17T00:04:03.307Z,11.70
2023-08-17T00:06:30.082Z,11.70
2023-08-17T00:08:57.228Z,12.40
2023-08-17T00:11:24.196Z,12.60
2023-08-17T00:13:51.266Z,12.40
2023-08-17T00:16:18.282Z,12.60
2023-08-17T00:18:45.198Z,12.70
2023-08-17T00:21:11.821Z,11.60
2023-08-17T00:23:38.458Z,12.30
2023-08-17T00:26:05.085Z,11.80
2023-08-17T00:28:31.721Z,11.00
2023-08-17T00:31:00.535Z,12.20
2023-08-17T00:33:27.212Z,11.80
2023-08-17T00:35:53.835Z,12.90
2023-08-17T00:38:20.698Z,12.10
2023-08-17T00:40:48.003Z,12.80
2023-08-17T00:43:15.015Z,12.50
2023-08-17T00:45:42.619Z,11.90
2023-08-17T00:48:10.709Z,12.30
2023-08-17T00:50:38.992Z,12.10
2023-08-17T00:53:05.872Z,12.20
2023-08-17T00:55:34.458Z,12.70
2023-08-17T00:58:01.761Z,13.60
2023-08-17T01:00:28.815Z,12.80
2023-08-17T01:02:56.598Z,11.90
2023-08-17T01:05:25.021Z,12.90
2023-08-17T01:07:51.769Z,12.20
2023-08-17T01:10:19.135Z,13.80
2023-08-17T01:13:12.169Z,12.70
2023-08-17T01:15:43.536Z,12.80
2023-08-17T01:18:27.798Z,12.20
2023-08-17T01:20:55.680Z,12.80
2023-08-17T01:23:23.850Z,13.30
2023-08-17T01:25:50.605Z,12.90
2023-08-17T01:28:17.300Z,13.30
2023-08-17T01:30:56.182Z,11.60
2023-08-17T01:33:49.408Z,12.90
2023-08-17T01:36:23.907Z,12.80
2023-08-17T01:38:53.532Z,12.50
2023-08-17T01:41:23.743Z,12.10
2023-08-17T01:43:51.206Z,12.60
2023-08-17T01:46:19.060Z,12.80
2023-08-17T01:48:46.619Z,13.40
2023-08-17T01:51:19.997Z,13.60
2023-08-17T01:53:47.296Z,13.30
2023-08-17T01:56:14.301Z,14.10
2023-08-17T01:58:40.986Z,14.20
2023-08-17T02:01:07.812Z,12.90
2023-08-17T02:03:34.541Z,13.20
2023-08-17T02:06:01.752Z,13.10
2023-08-17T02:08:28.492Z,13.40
2023-08-17T02:10:55.091Z,12.90
2023-08-17T02:13:22.020Z,12.40
2023-08-17T02:19:00.598Z,13.80
2023-08-17T02:21:27.267Z,11.90
2023-08-17T02:23:53.894Z,11.80
2023-08-17T02:26:21.956Z,12.50
2023-08-17T02:28:48.651Z,13.50
2023-08-17T02:31:15.278Z,12.20
2023-08-17T02:33:41.977Z,12.70
2023-08-17T02:36:08.665Z,13.30
2023-08-17T02:38:35.255Z,13.00
2023-08-17T02:41:01.878Z,13.20
2023-08-17T02:43:28.822Z,11.90
2023-08-17T02:45:55.513Z,12.80
2023-08-17T02:48:22.135Z,13.10
2023-08-17T02:50:48.783Z,15.10
2023-08-17T02:53:15.404Z,13.80
2023-08-17T02:55:42.357Z,12.20
2023-08-17T02:58:08.978Z,14.60
2023-08-17T03:00:35.655Z,14.60
2023-08-17T03:03:02.384Z,14.40
2023-08-17T03:05:29.049Z,14.60
2023-08-17T03:07:55.710Z,15.40
2023-08-17T03:10:22.312Z,14.10
2023-08-17T03:12:50.776Z,13.50
2023-08-17T03:15:17.992Z,13.00
2023-08-17T03:17:45.474Z,13.70
2023-08-17T03:20:12.343Z,13.80
2023-08-17T03:22:39.029Z,13.50
2023-08-17T03:25:06.724Z,13.70
2023-08-17T03:27:33.885Z,14.10
2023-08-17T03:30:01.268Z,14.20
2023-08-17T03:32:28.236Z,13.50
2023-08-17T03:34:54.891Z,13.40
2023-08-17T03:37:22.190Z,13.80
2023-08-17T03:39:48.867Z,12.80
2023-08-17T03:42:15.758Z,13.00
2023-08-17T03:44:42.392Z,12.00
2023-08-17T03:47:09.010Z,12.50
2023-08-17T03:49:35.700Z,12.40
2023-08-17T03:52:02.318Z,13.50
2023-08-17T03:54:29.023Z,11.40
2023-08-17T03:56:55.712Z,12.40
2023-08-17T03:59:22.480Z,12.30
2023-08-17T04:01:49.169Z,12.30
2023-08-17T04:04:15.886Z,12.00
2023-08-17T04:06:42.836Z,11.80
2023-08-17T04:09:09.470Z,13.30
2023-08-17T04:11:37.804Z,12.60
2023-08-17T04:14:05.024Z,12.90
2023-08-17T04:16:33.440Z,12.50
2023-08-17T04:19:00.583Z,13.30
2023-08-17T04:21:27.571Z,12.50
2023-08-17T04:23:54.447Z,11.80
2023-08-17T04:26:21.802Z,11.50
2023-08-17T04:28:48.508Z,11.40
2023-08-17T04:31:15.691Z,12.20
2023-08-17T04:33:42.466Z,12.10
2023-08-17T04:36:09.140Z,12.40
2023-08-17T04:38:35.788Z,12.50
2023-08-17T04:41:02.642Z,12.50
2023-08-17T04:43:29.291Z,12.60
2023-08-17T04:45:56.091Z,11.80
2023-08-17T04:48:22.792Z,12.50
2023-08-17T04:50:50.547Z,12.10
2023-08-17T04:53:17.424Z,13.00
2023-08-17T04:55:44.189Z,12.50
2023-08-17T04:58:11.630Z,12.10
2023-08-17T05:00:38.801Z,12.80
2023-08-17T05:03:06.916Z,12.30
2023-08-17T05:05:38.678Z,11.90
2023-08-17T05:08:07.289Z,12.60
2023-08-17T05:10:34.041Z,12.00
2023-08-17T05:13:00.728Z,12.30
2023-08-17T05:15:29.045Z,12.60
2023-08-17T05:17:57.508Z,13.50
2023-08-17T05:20:24.490Z,13.50
2023-08-17T05:22:51.171Z,12.30
2023-08-17T05:25:18.386Z,11.80
2023-08-17T05:27:45.187Z,12.60
2023-08-17T05:30:12.217Z,12.00
2023-08-17T05:32:38.865Z,12.10
2023-08-17T05:35:07.489Z,12.20
2023-08-17T05:37:34.175Z,12.90
2023-08-17T05:40:00.863Z,12.80
2023-08-17T05:42:27.530Z,12.20
2023-08-17T05:44:54.310Z,11.60
2023-08-17T05:47:23.025Z,12.00
2023-08-17T05:49:49.722Z,11.10
2023-08-17T05:52:16.413Z,10.90
2023-08-17T05:54:43.869Z,11.00
2023-08-17T05:57:11.800Z,10.40
2023-08-17T05:59:38.576Z,10.00
2023-08-17T06:02:05.411Z,10.80
2023-08-17T06:04:32.158Z,10.20
2023-08-17T06:06:58.835Z,10.00
2023-08-17T06:09:25.623Z,10.10
2023-08-17T06:11:52.224Z,9.70
2023-08-17T06:14:18.922Z,9.10
2023-08-17T06:16:45.649Z,9.70
2023-08-17T06:19:12.417Z,8.90
2023-08-17T06:21:39.070Z,9.30
2023-08-17T06:24:06.085Z,8.80
2023-08-17T06:26:32.858Z,9.00
2023-08-17T06:29:00.025Z,9.10
2023-08-17T06:31:28.674Z,8.70
2023-08-17T06:33:55.804Z,8.10
2023-08-17T06:36:22.719Z,8.90
2023-08-17T06:38:49.507Z,9.00
2023-08-17T06:41:17.317Z,9.60
2023-08-17T06:43:43.934Z,9.00
2023-08-17T06:46:10.734Z,9.10
2023-08-17T06:48:37.419Z,9.20
2023-08-17T06:51:05.890Z,9.10
2023-08-17T06:53:32.649Z,9.10
2023-08-17T06:56:02.462Z,9.60
2023-08-17T06:58:29.681Z,9.50
2023-08-17T07:00:56.872Z,9.30
2023-08-17T07:03:23.840Z,8.60
2023-08-17T07:05:50.659Z,8.80
2023-08-17T07:08:18.094Z,8.40
2023-08-17T07:10:47.563Z,8.60
2023-08-17T07:13:14.272Z,7.70
2023-08-17T07:15:41.251Z,8.10
2023-08-17T07:18:08.004Z,8.80
2023-08-17T07:20:34.791Z,7.80
2023-08-17T07:23:01.481Z,7.90
2023-08-17T07:25:28.182Z,7.80
2023-08-17T07:27:54.885Z,8.10
2023-08-17T07:30:21.534Z,7.00
2023-08-17T07:32:48.312Z,7.40
2023-08-17T07:35:15.083Z,7.10
2023-08-17T07:37:42.393Z,7.60
2023-08-17T07:40:10.989Z,6.90
2023-08-17T07:42:38.398Z,6.80
2023-08-17T07:45:07.408Z,7.00
2023-08-17T07:47:40.192Z,7.10
2023-08-17T07:50:08.043Z,6.70
2023-08-17T07:52:34.784Z,7.20
2023-08-17T07:55:01.668Z,6.90
2023-08-17T07:57:28.766Z,7.00
2023-08-17T07:59:55.896Z,6.80
2023-08-17T08:02:22.944Z,6.60
2023-08-17T08:04:49.600Z,6.60
2023-08-17T08:07:16.244Z,5.90
2023-08-17T08:09:42.896Z,6.00
2023-08-17T08:12:09.826Z,5.60
2023-08-17T08:14:36.863Z,5.50
2023-08-17T08:17:03.570Z,5.90
2023-08-17T08:19:30.273Z,5.20
2023-08-17T08:21:56.916Z,6.00
2023-08-17T08:24:36.612Z,5.90
2023-08-17T08:27:05.100Z,5.80
2023-08-17T08:29:31.753Z,5.70
2023-08-17T08:32:00.738Z,4.90
2023-08-17T08:34:27.454Z,5.20
2023-08-17T08:36:54.138Z,5.80
2023-08-17T08:39:20.793Z,5.40
2023-08-17T08:41:47.463Z,4.90
2023-08-17T08:44:14.254Z,5.70
2023-08-17T08:46:43.208Z,5.70
2023-08-17T08:51:52.176Z,5.00
2023-08-17T08:54:23.469Z,6.00
2023-08-17T08:56:57.060Z,5.20
2023-08-17T08:59:24.892Z,5.30
2023-08-17T09:01:52.032Z,5.60
2023-08-17T09:04:18.905Z,5.70
2023-08-17T09:06:47.237Z,5.60
2023-08-17T09:09:17.732Z,5.70
2023-08-17T09:11:45.435Z,6.00
2023-08-17T09:14:12.297Z,5.70
2023-08-17T09:16:39.048Z,5.80
2023-08-17T09:19:08.899Z,5.80
2023-08-17T09:21:35.648Z,5.80
2023-08-17T09:24:02.551Z,5.70
2023-08-17T09:26:33.812Z,5.40
2023-08-17T09:29:01.235Z,5.40
2023-08-17T09:31:31.599Z,6.10
2023-08-17T09:33:58.302Z,5.90
2023-08-17T09:36:28.690Z,6.10
2023-08-17T09:38:58.520Z,6.00
2023-08-17T09:41:27.678Z,5.40
2023-08-17T09:43:56.321Z,5.40
2023-08-17T09:46:23.192Z,5.80
2023-08-17T09:48:49.936Z,5.70
2023-08-17T09:51:17.457Z,5.50
2023-08-17T09:53:44.261Z,5.30
2023-08-17T09:58:43.555Z,5.10
2023-08-17T10:01:11.403Z,4.80
2023-08-17T10:03:43.353Z,4.80
2023-08-17T10:06:13.312Z,4.50
2023-08-17T10:08:45.476Z,3.90
2023-08-17T10:11:16.000Z,5.20
2023-08-17T10:14:04.024Z,4.00
2023-08-17T10:16:37.673Z,3.90
2023-08-17T10:19:14.102Z,4.30
2023-08-17T10:21:47.866Z,4.10
2023-08-17T10:24:15.352Z,3.60
2023-08-17T10:26:43.429Z,3.60
2023-08-17T10:29:15.343Z,3.80
2023-08-17T10:31:48.714Z,4.00
2023-08-17T10:34:17.067Z,3.30
2023-08-17T10:39:29.141Z,3.90
2023-08-17T10:41:58.178Z,3.70
2023-08-17T10:47:27.738Z,3.20
2023-08-17T10:50:21.129Z,4.00
2023-08-17T10:52:51.485Z,3.60
2023-08-17T10:55:38.081Z,3.70
2023-08-17T10:58:15.284Z,3.60
2023-08-17T11:00:46.173Z,3.00
2023-08-17T11:03:29.985Z,3.40
2023-08-17T11:06:00.101Z,3.70
2023-08-17T11:08:42.593Z,3.50
2023-08-17T11:11:15.731Z,3.30
2023-08-17T11:13:49.320Z,3.10
2023-08-17T11:16:23.533Z,3.10
2023-08-17T11:18:52.751Z,3.40
2023-08-17T11:21:22.439Z,3.00
2023-08-17T11:23:52.396Z,3.70
2023-08-17T11:26:23.504Z,3.80
2023-08-17T11:28:51.967Z,4.70
2023-08-17T11:31:22.444Z,3.80
2023-08-17T11:33:55.814Z,3.30
2023-08-17T11:36:26.271Z,4.10
2023-08-17T11:38:55.785Z,4.40
2023-08-17T11:41:25.404Z,4.90
2023-08-17T11:43:55.906Z,4.20
2023-08-17T11:46:29.078Z,5.00
2023-08-17T11:49:02.480Z,4.80
2023-08-17T11:51:43.125Z,4.20
2023-08-17T12:01:51.207Z,5.10
2023-08-17T12:04:18.199Z,5.40
2023-08-17T12:06:48.786Z,5.40
2023-08-17T12:09:15.652Z,5.50
2023-08-17T12:11:42.718Z,5.20
2023-08-17T12:14:12.121Z,5.10
2023-08-17T12:16:49.825Z,5.40
2023-08-17T12:19:21.929Z,5.90
2023-08-17T12:21:52.333Z,5.30
2023-08-17T12:24:20.860Z,5.20
2023-08-17T12:26:48.190Z,6.00
2023-08-17T12:29:15.438Z,5.00
2023-08-17T12:31:42.257Z,4.80
2023-08-17T12:34:09.077Z,4.90
2023-08-17T12:36:36.821Z,5.50
2023-08-17T12:39:05.602Z,4.90
2023-08-17T12:41:32.584Z,4.60
2023-08-17T12:44:00.333Z,4.30
2023-08-17T12:46:32.547Z,4.00
2023-08-17T12:49:00.444Z,3.60
2023-08-17T12:51:27.461Z,2.90
2023-08-17T12:53:54.108Z,3.30
2023-08-17T12:56:20.880Z,3.00
2023-08-17T12:58:47.739Z,3.60
2023-08-17T13:01:15.291Z,3.50
2023-08-17T13:03:42.103Z,3.80
2023-08-17T13:06:09.321Z,3.30
2023-08-17T13:08:36.036Z,2.90
2023-08-17T13:11:02.664Z,3.10
2023-08-17T13:13:29.338Z,3.30
2023-08-17T13:15:56.091Z,3.40
2023-08-17T13:18:22.931Z,3.10
2023-08-17T13:20:49.549Z,3.10
2023-08-17T13:23:16.217Z,3.70
2023-08-17T13:25:43.678Z,3.60
2023-08-17T13:28:10.341Z,3.40
2023-08-17T13:30:36.958Z,3.50
2023-08-17T13:33:03.975Z,2.90
2023-08-17T13:35:30.777Z,3.10
2023-08-17T13:37:58.769Z,3.60
2023-08-17T13:40:25.963Z,3.50
2023-08-17T13:42:52.589Z,3.80
2023-08-17T13:45:19.222Z,3.30
2023-08-17T13:47:47.664Z,3.30
2023-08-17T13:50:14.326Z,3.60
2023-08-17T13:52:40.938Z,4.10
2023-08-17T13:55:07.986Z,3.90
2023-08-17T13:57:34.944Z,3.70
2023-08-17T14:00:01.658Z,3.80
2023-08-17T14:02:30.787Z,3.80
2023-08-17T14:04:58.171Z,3.20
2023-08-17T14:07:24.837Z,3.90
2023-08-17T14:10:05.586Z,3.20
2023-08-17T14:12:35.120Z,3.80
2023-08-17T14:15:01.908Z,3.20
2023-08-17T14:17:28.550Z,2.80
2023-08-17T14:19:56.086Z,2.70
2023-08-17T14:22:22.744Z,2.60
2023-08-17T14:24:49.759Z,2.90
2023-08-17T14:27:16.369Z,3.20
2023-08-17T14:29:48.034Z,3.10
2023-08-17T14:32:15.315Z,3.00
2023-08-17T14:34:41.955Z,2.90
2023-08-17T14:37:08.568Z,3.10
2023-08-17T14:39:37.568Z,2.30
2023-08-17T14:42:06.109Z,2.70
2023-08-17T14:44:35.555Z,2.50
2023-08-17T14:47:02.270Z,2.50
2023-08-17T14:49:28.887Z,2.80
2023-08-17T14:51:55.744Z,2.80
2023-08-17T14:54:22.418Z,3.00
2023-08-17T14:56:49.145Z,2.30
2023-08-17T14:59:15.811Z,2.80
2023-08-17T15:01:42.459Z,2.30
2023-08-17T15:04:09.101Z,2.70
2023-08-17T15:06:41.895Z,2.40
2023-08-17T15:09:09.011Z,3.90
2023-08-17T15:11:37.050Z,4.30
2023-08-17T15:14:03.825Z,3.60
2023-08-17T15:16:30.481Z,2.60
2023-08-17T15:18:57.267Z,2.80
2023-08-17T15:21:23.945Z,2.40
2023-08-17T15:23:50.711Z,2.70
2023-08-17T15:26:17.470Z,2.70
2023-08-17T15:28:44.517Z,3.00
2023-08-17T15:31:14.303Z,2.90
2023-08-17T15:33:41.648Z,2.90
2023-08-17T15:36:08.557Z,2.80
2023-08-17T15:38:35.483Z,2.60
2023-08-17T15:41:02.162Z,3.30
2023-08-17T15:43:28.837Z,2.80
2023-08-17T15:45:55.609Z,2.80
2023-08-17T15:48:22.333Z,2.60
2023-08-17T15:50:49.028Z,3.60
2023-08-17T15:53:15.709Z,3.10
2023-08-17T15:55:42.392Z,3.10
2023-08-17T15:58:10.839Z,2.80
2023-08-17T16:00:37.895Z,3.40
2023-08-17T16:03:05.107Z,3.30
2023-08-17T16:05:32.522Z,3.00
2023-08-17T16:07:59.476Z,3.40
2023-08-17T16:10:27.047Z,3.20
2023-08-17T16:12:53.704Z,4.20
2023-08-17T16:15:20.328Z,3.80
2023-08-17T16:17:47.087Z,3.90
2023-08-17T16:20:13.796Z,4.20
2023-08-17T16:22:40.597Z,3.60
2023-08-17T16:25:08.370Z,3.90
2023-08-17T16:27:38.803Z,4.10
2023-08-17T16:30:06.988Z,3.90
2023-08-17T16:32:33.675Z,4.00
2023-08-17T16:35:00.507Z,4.30
2023-08-17T16:37:27.309Z,3.80
2023-08-17T16:39:54.265Z,3.80
2023-08-17T16:42:20.952Z,3.50
2023-08-17T16:44:47.564Z,4.50
2023-08-17T16:47:19.911Z,3.70
2023-08-17T16:49:46.918Z,3.90
2023-08-17T16:52:13.584Z,4.10
2023-08-17T16:54:40.364Z,4.20
2023-08-17T16:57:07.055Z,4.80
2023-08-17T16:59:33.677Z,4.40
2023-08-17T17:02:00.445Z,4.70
2023-08-17T17:04:27.157Z,5.00
2023-08-17T17:06:53.832Z,4.70
2023-08-17T17:09:21.140Z,4.70
2023-08-17T17:11:47.894Z,4.80
2023-08-17T17:14:14.515Z,4.70
2023-08-17T17:16:41.183Z,4.00
2023-08-17T17:19:07.770Z,4.10
2023-08-17T17:21:34.641Z,4.20
2023-08-17T17:24:01.274Z,5.10
2023-08-17T17:26:28.055Z,4.60
2023-08-17T17:28:54.636Z,5.10
2023-08-17T17:31:21.334Z,5.10
2023-08-17T17:33:48.059Z,4.80
2023-08-17T17:36:14.685Z,5.00
2023-08-17T17:38:41.409Z,5.50
2023-08-17T17:41:08.113Z,5.10
2023-08-17T17:43:34.715Z,6.80
2023-08-17T17:46:01.376Z,6.00
2023-08-17T17:48:30.464Z,6.60
2023-08-17T17:50:57.166Z,6.70
2023-08-17T17:53:23.866Z,7.80
2023-08-17T17:55:50.543Z,7.90
2023-08-17T17:58:17.185Z,8.70
2023-08-17T18:00:44.095Z,10.00
2023-08-17T18:03:14.877Z,10.70
2023-08-17T18:05:46.620Z,9.80
2023-08-17T18:08:13.678Z,8.60
2023-08-17T18:10:42.002Z,10.80
2023-08-17T18:13:09.585Z,10.50
2023-08-17T18:15:39.375Z,10.70
2023-08-17T18:18:06.949Z,8.50
2023-08-17T18:20:34.153Z,9.10
2023-08-17T18:23:00.866Z,9.60
2023-08-17T18:25:28.159Z,9.20
2023-08-17T18:27:55.012Z,10.00
2023-08-17T18:30:23.215Z,11.80
2023-08-17T18:32:50.962Z,10.90
2023-08-17T18:35:18.941Z,11.30
2023-08-17T18:37:46.991Z,12.00
2023-08-17T18:40:13.750Z,11.40
2023-08-17T18:42:40.647Z,11.20
2023-08-17T18:45:08.325Z,11.70
2023-08-17T18:47:35.394Z,11.90
2023-08-17T18:50:02.364Z,11.70
2023-08-17T18:52:29.008Z,12.80
2023-08-17T18:55:03.990Z,10.70
2023-08-17T18:57:33.650Z,10.30
2023-08-17T19:00:02.667Z,10.50
2023-08-17T19:02:29.429Z,11.50
2023-08-17T19:05:01.201Z,14.00
2023-08-17T19:07:29.365Z,14.40
2023-08-17T19:09:56.276Z,14.50
2023-08-17T19:12:23.051Z,14.90
2023-08-17T19:14:52.841Z,14.80
2023-08-17T19:17:19.634Z,13.20
2023-08-17T19:19:46.431Z,13.60
2023-08-17T19:22:13.121Z,14.60
2023-08-17T19:24:40.003Z,15.00
2023-08-17T19:27:06.689Z,13.10
2023-08-17T19:29:33.488Z,14.50
2023-08-17T19:32:00.284Z,15.20
2023-08-17T19:34:26.954Z,15.00
2023-08-17T19:36:53.636Z,15.60
2023-08-17T19:39:20.339Z,14.50
2023-08-17T19:41:48.572Z,14.50
2023-08-17T19:44:15.708Z,15.00
2023-08-17T19:46:42.317Z,15.00
2023-08-17T19:49:09.488Z,14.90
2023-08-17T19:51:36.185Z,16.20
2023-08-17T19:54:02.876Z,17.50
2023-08-17T19:56:29.821Z,17.00
2023-08-17T19:58:56.499Z,16.00
2023-08-17T20:01:23.814Z,14.40
2023-08-17T20:03:52.791Z,14.70
2023-08-17T20:06:19.524Z,15.40
2023-08-17T20:08:46.795Z,14.10
2023-08-17T20:11:13.541Z,13.70
2023-08-17T20:13:40.201Z,12.80
2023-08-17T20:16:07.020Z,13.30
2023-08-17T20:18:34.096Z,12.40
2023-08-17T20:21:03.288Z,12.50
2023-08-17T20:23:30.711Z,12.20
2023-08-17T20:25:57.758Z,11.50
2023-08-17T20:28:27.565Z,11.70
2023-08-17T20:31:00.519Z,11.30
2023-08-17T20:33:28.068Z,12.00
2023-08-17T20:35:56.253Z,12.60
2023-08-17T20:38:24.555Z,11.40
2023-08-17T20:40:52.649Z,12.50
2023-08-17T20:43:19.983Z,12.40
2023-08-17T20:45:46.851Z,12.60
2023-08-17T20:48:13.822Z,12.30
2023-08-17T20:50:41.899Z,11.80
2023-08-17T20:53:09.334Z,11.10
2023-08-17T20:55:41.462Z,11.20
2023-08-17T20:58:08.941Z,12.40
2023-08-17T21:00:36.967Z,12.00
2023-08-17T21:03:07.626Z,12.10
2023-08-17T21:05:34.629Z,12.10
2023-08-17T21:08:02.815Z,11.70
2023-08-17T21:10:30.247Z,13.10
2023-08-17T21:13:00.004Z,11.70
2023-08-17T21:17:53.740Z,11.90
2023-08-17T21:20:20.740Z,12.80
2023-08-17T21:22:52.508Z,11.30
2023-08-17T21:25:20.196Z,10.20
2023-08-17T21:27:47.870Z,9.80
2023-08-17T21:30:16.774Z,10.40
2023-08-17T21:32:43.989Z,9.70
2023-08-17T21:35:12.674Z,9.60
2023-08-17T21:37:42.087Z,8.60
2023-08-17T21:40:09.657Z,9.20
2023-08-17T21:42:36.405Z,8.20
2023-08-17T21:45:03.731Z,9.00
2023-08-17T21:47:30.832Z,8.00
2023-08-17T21:49:57.770Z,9.20
2023-08-17T21:52:24.719Z,8.60
2023-08-17T21:54:51.701Z,8.20
2023-08-17T21:57:18.851Z,7.50
2023-08-17T21:59:45.538Z,8.00
2023-08-17T22:02:12.197Z,8.10
2023-08-17T22:04:38.850Z,8.60
2023-08-17T22:07:05.581Z,8.60
2023-08-17T22:09:34.650Z,8.30
2023-08-17T22:12:02.369Z,8.80
2023-08-17T22:14:32.436Z,8.10
2023-08-17T22:16:59.481Z,7.70
2023-08-17T22:19:27.100Z,8.60
2023-08-17T22:21:54.707Z,7.80
2023-08-17T22:24:21.492Z,8.50
2023-08-17T22:26:48.540Z,8.80
2023-08-17T22:29:15.427Z,9.40
2023-08-17T22:31:44.314Z,9.70
2023-08-17T22:34:11.936Z,8.90
2023-08-17T22:36:38.990Z,9.10
2023-08-17T22:39:06.706Z,8.90
2023-08-17T22:41:33.805Z,8.30
2023-08-17T22:44:00.673Z,9.60
2023-08-17T22:46:27.488Z,8.90
2023-08-17T22:48:54.238Z,8.70
2023-08-17T22:51:20.939Z,8.60
2023-08-17T22:53:47.673Z,9.10
2023-08-17T22:56:14.405Z,9.10
2023-08-17T22:58:41.008Z,8.20
2023-08-17T23:01:08.762Z,6.90
2023-08-17T23:03:35.957Z,6.70
2023-08-17T23:06:02.933Z,7.70
2023-08-17T23:08:30.288Z,9.00
2023-08-17T23:11:03.924Z,9.00
2023-08-17T23:13:30.652Z,8.70
2023-08-17T23:15:57.418Z,10.00
2023-08-17T23:18:24.095Z,8.80
2023-08-17T23:20:51.027Z,8.80
2023-08-17T23:23:18.952Z,8.20
2023-08-17T23:25:45.712Z,7.80
2023-08-17T23:28:12.543Z,8.70
2023-08-17T23:30:40.666Z,8.50
2023-08-17T23:33:07.431Z,9.40
2023-08-17T23:35:35.106Z,8.90
2023-08-17T23:38:01.722Z,9.40
2023-08-17T23:40:28.356Z,8.20
2023-08-17T23:42:54.995Z,8.50
2023-08-17T23:45:21.656Z,8.30
2023-08-17T23:47:48.314Z,7.60
2023-08-17T23:50:15.273Z,7.40
2023-08-17T23:52:42.134Z,8.50
2023-08-17T23:55:09.054Z,7.90
2023-08-17T23:57:35.795Z,7.60
